createdAt,value
2022-09-27T00:01:26.238Z,42.14
2022-09-27T00:03:55.235Z,42.14
2022-09-27T00:06:22.963Z,41.86
2022-09-27T00:08:50.715Z,41.88
2022-09-27T00:11:18.462Z,41.79
2022-09-27T00:13:46.382Z,42.00
2022-09-27T00:16:14.247Z,42.02
2022-09-27T00:18:42.069Z,41.93
2022-09-27T00:21:09.809Z,42.04
2022-09-27T00:23:37.528Z,42.18
2022-09-27T00:26:05.362Z,41.89
2022-09-27T00:28:33.130Z,41.82
2022-09-27T00:31:00.962Z,42.05
2022-09-27T00:33:28.849Z,42.10
2022-09-27T00:35:56.669Z,42.44
2022-09-27T00:38:24.561Z,42.24
2022-09-27T00:40:52.407Z,42.29
2022-09-27T00:43:20.169Z,42.49
2022-09-27T00:45:47.987Z,42.43
2022-09-27T00:48:15.770Z,42.41
2022-09-27T00:50:43.542Z,42.43
2022-09-27T00:53:11.447Z,42.41
2022-09-27T00:55:39.255Z,42.22
2022-09-27T00:58:07.000Z,42.18
2022-09-27T01:00:34.770Z,42.16
2022-09-27T01:03:02.562Z,42.64
2022-09-27T01:05:30.486Z,42.57
2022-09-27T01:08:00.834Z,42.51
2022-09-27T01:10:28.700Z,42.31
2022-09-27T01:12:57.041Z,42.39
2022-09-27T01:15:24.812Z,42.57
2022-09-27T01:17:52.615Z,42.37
2022-09-27T01:20:20.362Z,42.50
2022-09-27T01:22:48.297Z,42.63
2022-09-27T01:25:16.008Z,42.19
2022-09-27T01:27:43.953Z,42.29
2022-09-27T01:30:11.683Z,42.50
2022-09-27T01:32:39.477Z,42.62
2022-09-27T01:35:07.592Z,42.34
2022-09-27T01:37:35.301Z,42.65
2022-09-27T01:40:03.141Z,42.32
2022-09-27T01:42:30.859Z,42.54
2022-09-27T01:44:58.619Z,42.35
2022-09-27T01:47:26.493Z,42.23
2022-09-27T01:49:54.271Z,42.71
2022-09-27T01:52:22.012Z,42.36
2022-09-27T01:54:49.801Z,42.56
2022-09-27T01:57:17.540Z,42.31
2022-09-27T01:59:45.246Z,42.62
2022-09-27T02:02:13.428Z,42.53
2022-09-27T02:04:41.176Z,42.34
2022-09-27T02:07:08.955Z,42.73
2022-09-27T02:09:36.671Z,42.46
2022-09-27T02:12:04.514Z,42.82
2022-09-27T02:14:32.291Z,42.55
2022-09-27T02:17:00.029Z,42.37
2022-09-27T02:19:27.792Z,42.54
2022-09-27T02:21:55.546Z,42.53
2022-09-27T02:24:23.302Z,42.52
2022-09-27T02:26:51.030Z,42.62
2022-09-27T02:29:18.778Z,42.59
2022-09-27T02:31:46.608Z,42.29
2022-09-27T02:34:14.568Z,42.59
2022-09-27T02:36:42.330Z,42.50
2022-09-27T02:39:10.129Z,42.43
2022-09-27T02:41:37.911Z,42.61
2022-09-27T02:44:05.698Z,42.40
2022-09-27T02:46:33.513Z,42.54
2022-09-27T02:49:01.337Z,42.43
2022-09-27T02:51:29.209Z,42.27
2022-09-27T02:53:56.935Z,42.72
2022-09-27T02:56:25.072Z,42.30
2022-09-27T02:58:53.294Z,42.68
2022-09-27T03:01:21.392Z,42.44
2022-09-27T03:03:49.180Z,42.68
2022-09-27T03:06:16.900Z,42.33
2022-09-27T03:08:44.639Z,42.33
2022-09-27T03:11:12.403Z,42.71
2022-09-27T03:14:01.338Z,42.68
2022-09-27T03:16:28.154Z,42.54
2022-09-27T03:18:55.975Z,42.63
2022-09-27T03:21:23.712Z,42.35
2022-09-27T03:23:51.497Z,42.79
2022-09-27T03:26:19.245Z,42.45
2022-09-27T03:28:46.982Z,42.65
2022-09-27T03:31:14.793Z,42.46
2022-09-27T03:33:42.644Z,42.52
2022-09-27T03:36:10.450Z,42.55
2022-09-27T03:38:38.247Z,42.77
2022-09-27T03:41:06.154Z,42.78
2022-09-27T03:43:33.939Z,42.34
2022-09-27T03:46:01.725Z,42.51
2022-09-27T03:48:31.201Z,42.60
2022-09-27T03:50:59.031Z,42.77
2022-09-27T03:53:26.748Z,42.78
2022-09-27T03:55:54.500Z,42.70
2022-09-27T03:58:22.224Z,42.70
2022-09-27T04:00:50.006Z,42.83
2022-09-27T04:03:19.499Z,42.87
2022-09-27T04:05:47.278Z,42.85
2022-09-27T04:08:15.018Z,42.87
2022-09-27T04:10:43.132Z,42.60
2022-09-27T04:13:10.863Z,42.84
2022-09-27T04:15:39.608Z,42.67
2022-09-27T04:18:07.319Z,42.59
2022-09-27T04:20:35.079Z,42.86
2022-09-27T04:23:02.820Z,42.59
2022-09-27T04:25:30.536Z,42.72
2022-09-27T04:27:58.573Z,42.80
2022-09-27T04:30:26.560Z,42.94
2022-09-27T04:32:54.478Z,42.63
2022-09-27T04:35:39.756Z,42.73
2022-09-27T04:38:07.521Z,43.11
2022-09-27T04:40:35.486Z,42.80
2022-09-27T04:43:04.537Z,43.04
2022-09-27T04:45:32.335Z,42.91
2022-09-27T04:48:00.124Z,42.81
2022-09-27T04:50:27.959Z,42.78
2022-09-27T04:52:55.733Z,43.02
2022-09-27T04:55:23.508Z,42.91
2022-09-27T04:57:51.264Z,43.01
2022-09-27T05:00:18.991Z,42.80
2022-09-27T05:02:48.562Z,42.85
2022-09-27T05:05:16.396Z,43.18
2022-09-27T05:07:44.174Z,43.12
2022-09-27T05:10:11.901Z,43.16
2022-09-27T05:12:39.654Z,43.08
2022-09-27T05:15:07.424Z,43.00
2022-09-27T05:17:35.160Z,43.17
2022-09-27T05:20:03.052Z,43.12
2022-09-27T05:22:30.798Z,42.82
2022-09-27T05:24:58.578Z,42.98
2022-09-27T05:27:26.312Z,42.97
2022-09-27T05:29:54.348Z,43.24
2022-09-27T05:32:22.533Z,43.26
2022-09-27T05:34:53.685Z,43.00
2022-09-27T05:37:21.523Z,43.26
2022-09-27T05:39:50.055Z,43.29
2022-09-27T05:42:17.817Z,43.12
2022-09-27T05:44:47.258Z,43.03
2022-09-27T05:47:15.397Z,43.18
2022-09-27T05:49:43.105Z,43.19
2022-09-27T05:52:14.982Z,42.86
2022-09-27T05:54:45.617Z,43.00
2022-09-27T05:57:13.360Z,43.04
2022-09-27T05:59:41.370Z,42.97
2022-09-27T06:02:09.223Z,43.06
2022-09-27T06:04:37.097Z,43.13
2022-09-27T06:07:04.841Z,43.14
2022-09-27T06:09:32.574Z,43.32
2022-09-27T06:12:00.303Z,42.96
2022-09-27T06:14:28.265Z,43.34
2022-09-27T06:16:56.068Z,43.19
2022-09-27T06:19:23.834Z,43.24
2022-09-27T06:21:51.863Z,42.92
2022-09-27T06:24:19.581Z,43.14
2022-09-27T06:26:47.512Z,43.05
2022-09-27T06:29:15.331Z,43.36
2022-09-27T06:31:43.158Z,43.01
2022-09-27T06:34:10.964Z,43.27
2022-09-27T06:36:38.773Z,43.33
2022-09-27T06:39:06.495Z,42.93
2022-09-27T06:41:35.983Z,43.09
2022-09-27T06:44:03.738Z,43.17
2022-09-27T06:46:31.550Z,43.42
2022-09-27T06:48:59.286Z,43.42
2022-09-27T06:51:27.080Z,43.12
2022-09-27T06:53:54.799Z,43.27
2022-09-27T06:56:22.513Z,43.10
2022-09-27T06:59:07.767Z,43.10
2022-09-27T07:01:36.402Z,42.83
2022-09-27T07:04:04.257Z,43.33
2022-09-27T07:06:31.958Z,43.06
2022-09-27T07:09:00.229Z,43.11
2022-09-27T07:11:27.970Z,43.09
2022-09-27T07:13:56.692Z,42.89
2022-09-27T07:16:24.438Z,43.29
2022-09-27T07:18:52.873Z,42.84
2022-09-27T07:21:20.908Z,43.00
2022-09-27T07:23:48.698Z,43.23
2022-09-27T07:26:16.507Z,43.09
2022-09-27T07:28:45.095Z,42.83
2022-09-27T07:31:12.878Z,42.88
2022-09-27T07:33:43.181Z,42.93
2022-09-27T07:36:11.484Z,42.95
2022-09-27T07:38:39.237Z,43.31
2022-09-27T07:41:07.055Z,42.98
2022-09-27T07:43:34.807Z,42.85
2022-09-27T07:46:02.578Z,43.13
2022-09-27T07:48:30.427Z,42.92
2022-09-27T07:50:58.128Z,43.12
2022-09-27T07:53:25.848Z,42.93
2022-09-27T07:55:54.211Z,43.02
2022-09-27T07:58:22.197Z,43.15
2022-09-27T08:00:49.973Z,42.95
2022-09-27T08:03:17.784Z,42.89
2022-09-27T08:05:45.523Z,42.76
2022-09-27T08:08:13.237Z,42.94
2022-09-27T08:10:44.252Z,42.81
2022-09-27T08:13:11.993Z,43.02
2022-09-27T08:15:40.021Z,42.87
2022-09-27T08:18:07.802Z,43.04
2022-09-27T08:20:35.760Z,42.96
2022-09-27T08:23:04.424Z,43.09
2022-09-27T08:25:32.340Z,43.09
2022-09-27T08:28:00.214Z,43.09
2022-09-27T08:30:27.984Z,42.92
2022-09-27T08:32:55.938Z,43.16
2022-09-27T08:35:23.664Z,43.11
2022-09-27T08:37:51.493Z,43.20
2022-09-27T08:40:24.154Z,42.78
2022-09-27T08:42:52.040Z,43.09
2022-09-27T08:45:19.758Z,42.92
2022-09-27T08:47:47.503Z,43.24
2022-09-27T08:50:15.359Z,43.12
2022-09-27T08:52:43.274Z,43.17
2022-09-27T08:55:11.009Z,43.25
2022-09-27T08:57:38.731Z,42.95
2022-09-27T09:00:07.256Z,43.12
2022-09-27T09:02:35.113Z,43.00
2022-09-27T09:05:03.147Z,43.31
2022-09-27T09:07:32.450Z,43.05
2022-09-27T09:10:00.170Z,42.91
2022-09-27T09:12:45.625Z,43.01
2022-09-27T09:15:13.413Z,43.20
2022-09-27T09:17:41.174Z,42.98
2022-09-27T09:20:11.242Z,42.93
2022-09-27T09:22:42.554Z,43.02
2022-09-27T09:25:10.276Z,43.20
2022-09-27T09:27:38.090Z,42.95
2022-09-27T09:30:07.009Z,43.01
2022-09-27T09:32:34.748Z,43.15
2022-09-27T09:35:02.486Z,42.89
2022-09-27T09:37:30.244Z,43.12
2022-09-27T09:39:57.961Z,42.82
2022-09-27T09:42:25.676Z,42.88
2022-09-27T09:44:54.300Z,42.99
2022-09-27T09:47:22.036Z,43.14
2022-09-27T09:49:49.805Z,43.37
2022-09-27T09:52:18.687Z,43.12
2022-09-27T09:54:46.413Z,43.25
2022-09-27T09:57:14.155Z,43.01
2022-09-27T09:59:43.082Z,42.96
2022-09-27T10:02:10.852Z,43.22
2022-09-27T10:04:38.827Z,43.20
2022-09-27T10:07:06.563Z,43.02
2022-09-27T10:09:34.756Z,43.12
2022-09-27T10:12:02.496Z,43.29
2022-09-27T10:14:30.284Z,43.12
2022-09-27T10:16:58.199Z,43.10
2022-09-27T10:19:27.025Z,43.06
2022-09-27T10:21:54.849Z,43.00
2022-09-27T10:24:22.758Z,43.28
2022-09-27T10:26:51.696Z,43.11
2022-09-27T10:29:19.458Z,42.96
2022-09-27T10:31:48.047Z,43.15
2022-09-27T10:34:15.890Z,43.24
2022-09-27T10:36:43.683Z,43.42
2022-09-27T10:39:11.429Z,43.42
2022-09-27T10:41:39.189Z,43.46
2022-09-27T10:44:07.173Z,43.08
2022-09-27T10:46:34.976Z,43.39
2022-09-27T10:49:02.726Z,43.31
2022-09-27T10:51:30.442Z,43.39
2022-09-27T10:54:00.344Z,43.42
2022-09-27T10:56:28.096Z,43.39
2022-09-27T10:58:56.232Z,43.36
2022-09-27T11:01:23.966Z,43.19
2022-09-27T11:03:51.986Z,43.12
2022-09-27T11:06:19.701Z,43.25
2022-09-27T11:08:49.026Z,43.04
2022-09-27T11:11:17.330Z,43.06
2022-09-27T11:13:45.123Z,42.78
2022-09-27T11:16:12.868Z,43.23
2022-09-27T11:18:40.674Z,43.13
2022-09-27T11:21:08.883Z,43.51
2022-09-27T11:23:36.642Z,43.10
2022-09-27T11:26:04.393Z,43.10
2022-09-27T11:28:32.653Z,43.25
2022-09-27T11:31:03.909Z,43.20
2022-09-27T11:33:32.775Z,43.21
2022-09-27T11:36:00.490Z,42.98
2022-09-27T11:38:51.640Z,43.40
2022-09-27T11:41:16.775Z,43.30
2022-09-27T11:43:44.511Z,43.52
2022-09-27T11:46:28.145Z,42.98
2022-09-27T11:49:11.871Z,43.22
2022-09-27T11:52:00.017Z,43.25
2022-09-27T11:54:29.085Z,43.05
2022-09-27T11:57:15.407Z,43.06
2022-09-27T11:59:44.349Z,43.14
2022-09-27T12:05:41.167Z,43.25
2022-09-27T12:08:15.630Z,43.29
2022-09-27T12:10:44.707Z,43.10
2022-09-27T12:13:13.886Z,43.21
2022-09-27T12:18:51.650Z,42.95
2022-09-27T12:21:26.589Z,43.13
2022-09-27T12:24:03.314Z,42.86
2022-09-27T12:30:01.878Z,43.18
2022-09-27T12:32:39.723Z,43.02
2022-09-27T12:35:33.910Z,43.20
2022-09-27T12:38:34.190Z,43.30
2022-09-27T12:41:09.171Z,43.19
2022-09-27T12:43:37.597Z,43.14
2022-09-27T12:46:06.380Z,43.06
2022-09-27T12:48:36.989Z,43.06
2022-09-27T12:51:10.526Z,43.25
2022-09-27T12:53:50.858Z,43.02
2022-09-27T12:56:27.135Z,42.93
2022-09-27T12:58:57.309Z,43.27
2022-09-27T13:04:37.619Z,43.40
2022-09-27T13:07:12.477Z,43.00
2022-09-27T13:09:44.226Z,43.43
2022-09-27T13:12:13.479Z,43.35
2022-09-27T13:14:41.909Z,43.09
2022-09-27T13:17:27.387Z,42.87
2022-09-27T13:19:55.749Z,43.35
2022-09-27T13:22:23.924Z,43.02
2022-09-27T13:25:08.099Z,43.15
2022-09-27T13:27:41.950Z,43.15
2022-09-27T13:30:10.038Z,43.48
2022-09-27T13:32:38.313Z,43.11
2022-09-27T13:35:09.195Z,43.01
2022-09-27T13:37:41.717Z,43.25
2022-09-27T13:40:11.519Z,42.95
2022-09-27T13:42:43.069Z,43.04
2022-09-27T13:45:13.747Z,43.24
2022-09-27T13:47:41.915Z,42.99
2022-09-27T13:50:09.696Z,43.08
2022-09-27T13:52:37.456Z,42.99
2022-09-27T13:55:05.326Z,43.08
2022-09-27T13:57:33.176Z,43.25
2022-09-27T14:00:00.944Z,43.03
2022-09-27T14:02:28.925Z,39.60
2022-09-27T14:04:56.829Z,33.33
2022-09-27T14:07:24.684Z,28.92
2022-09-27T14:09:52.538Z,26.31
2022-09-27T14:12:20.527Z,24.01
2022-09-27T14:14:49.658Z,22.24
2022-09-27T14:17:17.541Z,20.54
2022-09-27T14:19:45.422Z,19.88
2022-09-27T14:22:13.349Z,20.15
2022-09-27T14:24:41.124Z,20.09
2022-09-27T14:27:08.942Z,20.81
2022-09-27T14:29:36.751Z,21.10
2022-09-27T14:32:04.468Z,21.41
2022-09-27T14:34:32.290Z,21.61
2022-09-27T14:37:17.498Z,21.75
2022-09-27T14:39:45.379Z,21.93
2022-09-27T14:42:15.188Z,21.85
2022-09-27T14:44:42.966Z,22.14
2022-09-27T14:47:10.778Z,22.63
2022-09-27T14:49:38.562Z,23.17
2022-09-27T14:52:06.334Z,24.00
2022-09-27T14:54:34.128Z,24.18
2022-09-27T14:57:01.992Z,25.71
2022-09-27T14:59:31.183Z,26.06
2022-09-27T15:02:00.616Z,27.02
2022-09-27T15:04:28.696Z,27.38
2022-09-27T15:06:56.713Z,28.38
2022-09-27T15:09:24.484Z,28.70
2022-09-27T15:11:52.985Z,29.48
2022-09-27T15:14:21.176Z,29.99
2022-09-27T15:16:49.126Z,30.95
2022-09-27T15:19:18.000Z,31.59
2022-09-27T15:21:45.786Z,32.11
2022-09-27T15:24:16.427Z,32.63
2022-09-27T15:26:44.242Z,33.12
2022-09-27T15:29:12.016Z,33.21
2022-09-27T15:31:40.032Z,34.06
2022-09-27T15:34:07.829Z,34.17
2022-09-27T15:36:35.594Z,34.58
2022-09-27T15:39:04.158Z,34.61
2022-09-27T15:41:34.611Z,35.43
2022-09-27T15:44:02.488Z,35.70
2022-09-27T15:46:30.288Z,34.92
2022-09-27T15:48:58.089Z,34.75
2022-09-27T15:51:26.170Z,34.41
2022-09-27T15:53:53.981Z,33.98
2022-09-27T15:56:21.825Z,33.99
2022-09-27T15:58:49.614Z,34.61
2022-09-27T16:01:17.451Z,34.83
2022-09-27T16:03:45.367Z,35.01
2022-09-27T16:06:13.738Z,35.34
2022-09-27T16:08:41.516Z,35.50
2022-09-27T16:11:09.306Z,35.47
2022-09-27T16:13:37.158Z,36.19
2022-09-27T16:16:05.168Z,35.75
2022-09-27T16:18:33.642Z,34.99
2022-09-27T16:21:01.442Z,32.44
2022-09-27T16:23:29.354Z,29.29
2022-09-27T16:25:57.191Z,27.42
2022-09-27T16:28:25.000Z,25.87
2022-09-27T16:30:52.821Z,24.17
2022-09-27T16:33:20.757Z,24.30
2022-09-27T16:35:48.625Z,23.69
2022-09-27T16:38:17.886Z,23.71
2022-09-27T16:40:45.841Z,23.43
2022-09-27T16:43:13.678Z,24.55
2022-09-27T16:45:41.465Z,24.88
2022-09-27T16:48:09.309Z,25.05
2022-09-27T16:50:54.588Z,26.28
2022-09-27T16:53:22.397Z,26.38
2022-09-27T16:55:50.180Z,27.10
2022-09-27T16:58:18.081Z,27.67
2022-09-27T17:00:45.940Z,28.81
2022-09-27T17:03:14.201Z,29.36
2022-09-27T17:05:41.959Z,30.13
2022-09-27T17:08:09.707Z,30.61
2022-09-27T17:10:38.781Z,31.44
2022-09-27T17:13:06.983Z,31.76
2022-09-27T17:15:34.746Z,32.56
2022-09-27T17:18:03.173Z,33.24
2022-09-27T17:20:31.027Z,33.83
2022-09-27T17:22:59.083Z,34.25
2022-09-27T17:25:27.937Z,34.70
2022-09-27T17:27:55.827Z,35.33
2022-09-27T17:30:24.051Z,35.64
2022-09-27T17:32:51.828Z,35.38
2022-09-27T17:35:19.654Z,35.74
2022-09-27T17:37:47.580Z,36.31
2022-09-27T17:40:16.332Z,35.42
2022-09-27T17:42:44.193Z,34.03
2022-09-27T17:45:11.928Z,32.49
2022-09-27T17:48:05.110Z,31.25
2022-09-27T17:53:42.338Z,28.01
2022-09-27T17:56:10.062Z,27.06
2022-09-27T17:58:37.786Z,26.51
2022-09-27T18:01:05.442Z,25.76
2022-09-27T18:03:33.234Z,25.21
2022-09-27T18:06:00.947Z,25.86
2022-09-27T18:08:29.502Z,26.60
2022-09-27T18:10:57.206Z,27.00
2022-09-27T18:13:24.959Z,27.60
2022-09-27T18:15:52.722Z,28.23
2022-09-27T18:18:21.128Z,29.12
2022-09-27T18:20:48.883Z,29.60
2022-09-27T18:23:16.607Z,30.46
2022-09-27T18:25:45.142Z,31.13
2022-09-27T18:28:12.846Z,31.64
2022-09-27T18:30:40.659Z,32.27
2022-09-27T18:33:08.376Z,32.66
2022-09-27T18:35:36.061Z,33.61
2022-09-27T18:38:03.728Z,33.69
2022-09-27T18:40:54.419Z,34.04
2022-09-27T18:43:19.060Z,34.59
2022-09-27T18:45:47.108Z,35.11
2022-09-27T18:48:14.767Z,34.45
2022-09-27T18:50:42.482Z,34.83
2022-09-27T18:53:10.172Z,34.78
2022-09-27T18:55:37.887Z,35.42
2022-09-27T18:58:05.532Z,35.99
2022-09-27T19:00:33.430Z,35.81
2022-09-27T19:03:01.094Z,36.36
2022-09-27T19:05:28.823Z,36.45
2022-09-27T19:07:56.514Z,36.92
2022-09-27T19:10:24.251Z,36.93
2022-09-27T19:12:56.141Z,37.08
2022-09-27T19:15:23.946Z,37.49
2022-09-27T19:17:51.905Z,37.49
2022-09-27T19:20:19.674Z,38.25
2022-09-27T19:22:47.369Z,38.48
2022-09-27T19:25:15.084Z,38.35
2022-09-27T19:27:43.359Z,38.20
2022-09-27T19:30:12.627Z,38.31
2022-09-27T19:32:40.292Z,38.50
2022-09-27T19:35:08.805Z,39.31
2022-09-27T19:37:36.489Z,38.81
2022-09-27T19:40:04.452Z,39.16
2022-09-27T19:42:32.235Z,38.81
2022-09-27T19:45:00.056Z,38.11
2022-09-27T19:47:28.353Z,38.00
2022-09-27T19:49:57.113Z,38.62
2022-09-27T19:52:24.987Z,38.59
2022-09-27T19:54:52.789Z,38.37
2022-09-27T19:57:20.489Z,38.43
2022-09-27T19:59:48.256Z,38.83
2022-09-27T20:02:16.130Z,39.06
2022-09-27T20:04:43.899Z,38.47
2022-09-27T20:07:11.632Z,39.19
2022-09-27T20:09:39.333Z,39.12
2022-09-27T20:12:07.338Z,39.27
2022-09-27T20:14:35.019Z,38.88
2022-09-27T20:17:02.731Z,39.01
2022-09-27T20:19:30.449Z,38.94
2022-09-27T20:21:58.195Z,38.93
2022-09-27T20:24:25.953Z,39.65
2022-09-27T20:26:53.741Z,39.70
2022-09-27T20:29:21.420Z,39.26
2022-09-27T20:32:15.530Z,39.51
2022-09-27T20:34:36.750Z,39.88
2022-09-27T20:37:04.448Z,39.80
2022-09-27T20:39:32.428Z,39.47
2022-09-27T20:42:00.148Z,39.46
2022-09-27T20:44:27.881Z,39.87
2022-09-27T20:46:55.634Z,39.78
2022-09-27T20:49:23.393Z,39.65
2022-09-27T20:51:51.363Z,39.77
2022-09-27T20:54:19.148Z,39.69
2022-09-27T20:56:47.064Z,40.10
2022-09-27T20:59:15.128Z,40.16
2022-09-27T21:01:43.099Z,40.09
2022-09-27T21:04:10.830Z,39.80
2022-09-27T21:06:38.777Z,39.92
2022-09-27T21:09:06.480Z,40.42
2022-09-27T21:11:34.236Z,40.41
2022-09-27T21:14:01.931Z,39.91
2022-09-27T21:16:29.691Z,40.33
2022-09-27T21:18:58.391Z,40.45
2022-09-27T21:21:26.061Z,40.24
2022-09-27T21:23:53.735Z,40.43
2022-09-27T21:26:21.443Z,40.15
2022-09-27T21:28:49.300Z,40.43
2022-09-27T21:31:22.340Z,40.65
2022-09-27T21:33:50.681Z,40.51
2022-09-27T21:36:18.379Z,40.77
2022-09-27T21:38:46.093Z,40.59
2022-09-27T21:41:14.668Z,40.83
2022-09-27T21:43:42.409Z,40.58
2022-09-27T21:46:10.153Z,40.50
2022-09-27T21:48:38.028Z,40.61
2022-09-27T21:51:06.135Z,40.64
2022-09-27T21:53:33.907Z,40.71
2022-09-27T21:56:01.590Z,40.97
2022-09-27T21:58:29.314Z,41.00
2022-09-27T22:00:57.000Z,40.89
2022-09-27T22:03:24.779Z,40.57
2022-09-27T22:05:52.801Z,41.02
2022-09-27T22:08:20.558Z,40.77
2022-09-27T22:10:48.300Z,40.81
2022-09-27T22:13:16.221Z,40.72
2022-09-27T22:15:43.971Z,40.91
2022-09-27T22:18:11.663Z,41.18
2022-09-27T22:20:39.390Z,40.78
2022-09-27T22:23:07.056Z,41.00
2022-09-27T22:25:34.748Z,41.19
2022-09-27T22:28:02.523Z,40.86
2022-09-27T22:30:30.273Z,40.96
2022-09-27T22:32:58.003Z,41.20
2022-09-27T22:35:26.354Z,41.04
2022-09-27T22:37:54.094Z,41.20
2022-09-27T22:40:21.886Z,41.29
2022-09-27T22:42:49.620Z,41.32
2022-09-27T22:45:18.418Z,41.48
2022-09-27T22:47:46.294Z,41.23
2022-09-27T22:50:13.998Z,41.42
2022-09-27T22:52:41.734Z,41.43
2022-09-27T22:55:09.392Z,41.51
2022-09-27T22:57:37.069Z,41.56
2022-09-27T23:00:04.818Z,41.29
2022-09-27T23:02:32.540Z,41.66
2022-09-27T23:05:00.284Z,41.55
2022-09-27T23:07:27.980Z,41.57
2022-09-27T23:09:55.642Z,41.29
2022-09-27T23:12:23.714Z,41.29
2022-09-27T23:14:51.369Z,41.40
2022-09-27T23:17:20.409Z,41.62
2022-09-27T23:19:48.079Z,41.57
2022-09-27T23:22:15.817Z,41.63
2022-09-27T23:24:43.627Z,41.61
2022-09-27T23:27:28.788Z,41.61
2022-09-27T23:29:56.505Z,41.61
2022-09-27T23:32:26.617Z,41.70
2022-09-27T23:34:57.482Z,41.53
2022-09-27T23:37:25.134Z,41.62
2022-09-27T23:39:52.920Z,41.92
2022-09-27T23:42:20.668Z,41.53
2022-09-27T23:44:48.374Z,41.78
2022-09-27T23:47:16.140Z,41.79
2022-09-27T23:49:43.896Z,41.53
2022-09-27T23:52:11.573Z,41.49
2022-09-27T23:54:39.768Z,41.69
2022-09-27T23:57:07.701Z,41.90
2022-09-27T23:59:35.558Z,41.45
